Time;durP1;ratioP1;P1;durP2;ratioP2;P2;SDS_P1;SDS_P2;PMS_P1;PMS_P2;Temp;Humidity;BMP_temperature;BMP_pressure;BME280_temperature;BME280_humidity;BME280_pressure;Samples;Min_cycle;Max_cycle;Signal;HPM_P1;HPM_P2
2022/09/22 00:01:22;;;;;;;12.20;4.23;;;;;;;;;;4968390;28;20252;-79
2022/09/22 00:03:52;;;;;;;8.00;3.73;;;;;;;;;;4968822;28;20230;-80
2022/09/22 00:06:21;;;;;;;15.20;3.67;;;;;;;;;;4968862;28;20220;-79
2022/09/22 00:08:49;;;;;;;10.60;3.63;;;;;;;;;;4970233;28;20249;-81
2022/09/22 00:11:19;;;;;;;12.07;4.07;;;;;;;;;;4972624;28;20229;-80
2022/09/22 00:13:49;;;;;;;7.80;3.73;;;;;;;;;;4969704;28;20225;-80
2022/09/22 00:16:17;;;;;;;6.80;3.63;;;;;;;;;;4968041;28;20296;-80
2022/09/22 00:18:45;;;;;;;7.33;3.73;;;;;;;;;;4968914;28;20202;-80
2022/09/22 00:21:14;;;;;;;9.90;5.00;;;;;;;;;;4972176;28;20198;-80
2022/09/22 00:23:42;;;;;;;10.03;3.70;;;;;;;;;;4964490;28;20743;-80
2022/09/22 00:26:11;;;;;;;9.57;3.83;;;;;;;;;;4970125;28;20288;-80
2022/09/22 00:28:40;;;;;;;6.53;3.53;;;;;;;;;;4966379;28;20237;-81
2022/09/22 00:31:08;;;;;;;8.57;3.43;;;;;;;;;;4971078;28;20232;-80
2022/09/22 00:33:36;;;;;;;6.90;3.63;;;;;;;;;;4967416;28;20232;-80
2022/09/22 00:36:04;;;;;;;12.70;4.03;;;;;;;;;;4968899;28;20210;-80
2022/09/22 00:38:32;;;;;;;9.40;3.30;;;;;;;;;;4966389;28;20198;-79
2022/09/22 00:41:00;;;;;;;9.20;3.77;;;;;;;;;;4967295;28;20209;-79
2022/09/22 00:43:28;;;;;;;9.33;3.60;;;;;;;;;;4966262;28;20507;-79
2022/09/22 00:46:00;;;;;;;7.63;3.40;;;;;;;;;;4966106;28;20225;-79
2022/09/22 00:48:30;;;;;;;8.37;3.57;;;;;;;;;;4968117;28;20216;-80
2022/09/22 00:50:59;;;;;;;8.70;3.30;;;;;;;;;;4967604;28;20228;-80
2022/09/22 00:53:26;;;;;;;7.43;3.23;;;;;;;;;;4962849;28;20292;-80
2022/09/22 00:55:56;;;;;;;10.03;3.50;;;;;;;;;;4967351;28;20222;-80
2022/09/22 00:58:28;;;;;;;8.60;3.87;;;;;;;;;;4965741;28;20257;-81
2022/09/22 01:00:56;;;;;;;8.30;3.47;;;;;;;;;;4968092;28;20636;-80
2022/09/22 01:03:26;;;;;;;8.57;3.63;;;;;;;;;;4965012;28;20237;-81
2022/09/22 01:05:55;;;;;;;7.63;3.47;;;;;;;;;;4969854;28;20216;-80
2022/09/22 01:08:22;;;;;;;6.73;3.30;;;;;;;;;;4965926;28;20209;-81
2022/09/22 01:10:50;;;;;;;5.60;3.10;;;;;;;;;;4969803;28;20710;-80
2022/09/22 01:13:23;;;;;;;7.37;2.90;;;;;;;;;;4967935;28;21336;-79
2022/09/22 01:15:56;;;;;;;7.97;3.47;;;;;;;;;;4967454;28;20252;-80
2022/09/22 01:18:28;;;;;;;7.10;3.13;;;;;;;;;;4967339;28;20306;-81
2022/09/22 01:21:14;;;;;;;8.20;3.47;;;;;;;;;;4965098;28;20206;-80
2022/09/22 01:23:59;;;;;;;6.60;2.93;;;;;;;;;;4967909;28;20217;-80
2022/09/22 01:26:39;;;;;;;5.87;3.23;;;;;;;;;;4966265;28;20751;-80
2022/09/22 01:29:18;;;;;;;9.60;3.23;;;;;;;;;;4969774;28;20233;-80
2022/09/22 01:31:49;;;;;;;8.33;2.80;;;;;;;;;;4973161;28;20308;-81
2022/09/22 01:34:20;;;;;;;8.80;2.93;;;;;;;;;;4968856;28;20223;-80
2022/09/22 01:36:50;;;;;;;7.30;3.07;;;;;;;;;;4971479;28;20272;-80
2022/09/22 01:39:19;;;;;;;7.37;2.87;;;;;;;;;;4971299;28;20260;-81
2022/09/22 01:41:50;;;;;;;8.93;3.13;;;;;;;;;;4972625;28;20288;-80
2022/09/22 01:44:21;;;;;;;8.90;3.17;;;;;;;;;;4971004;28;20231;-80
2022/09/22 01:46:54;;;;;;;7.27;2.93;;;;;;;;;;4971204;28;20554;-80
2022/09/22 01:49:22;;;;;;;8.83;3.00;;;;;;;;;;4975480;28;20212;-80
2022/09/22 01:51:51;;;;;;;6.23;3.03;;;;;;;;;;4971986;28;20268;-80
2022/09/22 01:54:21;;;;;;;7.13;2.70;;;;;;;;;;4970659;28;20301;-80
2022/09/22 01:56:52;;;;;;;8.30;3.27;;;;;;;;;;4975080;28;20206;-80
2022/09/22 01:59:22;;;;;;;5.40;2.80;;;;;;;;;;4977392;28;20236;-78
2022/09/22 02:01:54;;;;;;;6.73;3.27;;;;;;;;;;4969688;28;20210;-79
2022/09/22 02:04:24;;;;;;;6.57;3.03;;;;;;;;;;4972923;28;20198;-78
2022/09/22 02:06:55;;;;;;;7.00;3.30;;;;;;;;;;4970505;28;20681;-79
2022/09/22 02:09:24;;;;;;;7.97;3.47;;;;;;;;;;4972741;28;20696;-79
2022/09/22 02:11:51;;;;;;;8.00;3.30;;;;;;;;;;4969131;28;20230;-79
2022/09/22 02:14:19;;;;;;;9.50;2.97;;;;;;;;;;4972080;28;20253;-79
2022/09/22 02:16:46;;;;;;;10.23;3.10;;;;;;;;;;4969015;28;20208;-80
2022/09/22 02:19:17;;;;;;;5.03;2.60;;;;;;;;;;4971485;28;20206;-79
2022/09/22 02:21:46;;;;;;;9.50;3.17;;;;;;;;;;4966938;28;20198;-79
2022/09/22 02:24:26;;;;;;;5.63;2.70;;;;;;;;;;4971570;28;20249;-80
2022/09/22 02:26:54;;;;;;;5.37;2.80;;;;;;;;;;4970945;28;20285;-80
2022/09/22 02:29:22;;;;;;;5.60;2.70;;;;;;;;;;4968267;28;20284;-79
2022/09/22 02:31:50;;;;;;;5.60;2.83;;;;;;;;;;4970686;28;20234;-79
2022/09/22 02:34:19;;;;;;;6.10;2.93;;;;;;;;;;4968070;28;20205;-79
2022/09/22 02:36:51;;;;;;;5.17;2.80;;;;;;;;;;4973243;28;20297;-79
2022/09/22 02:39:20;;;;;;;9.17;3.00;;;;;;;;;;4966564;28;20265;-80
2022/09/22 02:41:57;;;;;;;11.97;2.90;;;;;;;;;;4968286;28;20244;-80
2022/09/22 02:44:26;;;;;;;6.43;2.47;;;;;;;;;;4971530;28;20684;-79
2022/09/22 02:46:57;;;;;;;6.67;2.73;;;;;;;;;;4971657;28;20210;-79
2022/09/22 02:49:26;;;;;;;4.50;2.30;;;;;;;;;;4966696;28;20636;-79
2022/09/22 02:51:54;;;;;;;8.60;2.53;;;;;;;;;;4968034;28;20245;-79
2022/09/22 02:54:22;;;;;;;6.87;3.17;;;;;;;;;;4972344;28;20241;-79
2022/09/22 02:56:49;;;;;;;6.07;2.90;;;;;;;;;;4970317;28;20213;-79
2022/09/22 02:59:17;;;;;;;13.37;2.90;;;;;;;;;;4970241;28;20297;-79
2022/09/22 03:01:44;;;;;;;7.20;2.77;;;;;;;;;;4971510;28;20320;-79
2022/09/22 03:04:11;;;;;;;5.47;2.17;;;;;;;;;;4965499;28;20202;-79
2022/09/22 03:06:40;;;;;;;6.80;2.80;;;;;;;;;;4968040;28;20217;-79
2022/09/22 03:09:08;;;;;;;6.97;2.90;;;;;;;;;;4971081;28;20302;-79
2022/09/22 03:11:35;;;;;;;11.07;2.60;;;;;;;;;;4973909;28;20289;-79
2022/09/22 03:14:04;;;;;;;5.47;2.50;;;;;;;;;;4970166;28;20221;-79
2022/09/22 03:16:31;;;;;;;6.67;2.60;;;;;;;;;;4973080;28;20264;-79
2022/09/22 03:18:58;;;;;;;5.97;2.40;;;;;;;;;;4967822;28;20206;-79
2022/09/22 03:21:26;;;;;;;5.60;2.80;;;;;;;;;;4964145;28;20216;-79
2022/09/22 03:23:55;;;;;;;4.70;2.23;;;;;;;;;;4967247;28;20237;-79
2022/09/22 03:26:22;;;;;;;8.33;2.50;;;;;;;;;;4971653;28;20202;-79
2022/09/22 03:28:49;;;;;;;11.27;2.77;;;;;;;;;;4966681;28;20229;-80
2022/09/22 03:31:17;;;;;;;5.77;2.73;;;;;;;;;;4967685;28;20227;-79
2022/09/22 03:33:44;;;;;;;7.87;3.17;;;;;;;;;;4973699;28;20668;-79
2022/09/22 03:36:12;;;;;;;4.37;2.50;;;;;;;;;;4972091;28;20559;-79
2022/09/22 03:38:40;;;;;;;5.40;2.37;;;;;;;;;;4968743;28;20668;-79
2022/09/22 03:41:08;;;;;;;7.07;3.43;;;;;;;;;;4967635;28;20229;-79
2022/09/22 03:43:36;;;;;;;7.67;3.47;;;;;;;;;;4972191;28;20710;-79
2022/09/22 03:46:03;;;;;;;12.20;3.77;;;;;;;;;;4971185;28;20582;-79
2022/09/22 03:48:31;;;;;;;5.77;2.70;;;;;;;;;;4968277;28;20201;-79
2022/09/22 03:50:58;;;;;;;4.33;2.70;;;;;;;;;;4968547;28;20228;-79
2022/09/22 03:53:26;;;;;;;4.13;2.57;;;;;;;;;;4972052;28;20229;-77
2022/09/22 03:55:54;;;;;;;9.17;2.80;;;;;;;;;;4969430;28;20237;-80
2022/09/22 03:58:22;;;;;;;8.33;2.40;;;;;;;;;;4970612;28;20746;-80
2022/09/22 04:00:50;;;;;;;5.30;2.53;;;;;;;;;;4969629;28;20851;-80
2022/09/22 04:03:17;;;;;;;7.07;2.43;;;;;;;;;;4968491;28;20473;-79
2022/09/22 04:05:49;;;;;;;7.97;2.63;;;;;;;;;;4971911;28;20205;-79
2022/09/22 04:08:17;;;;;;;7.57;2.60;;;;;;;;;;4971068;28;20233;-79
2022/09/22 04:10:45;;;;;;;9.70;2.57;;;;;;;;;;4968604;28;20197;-79
2022/09/22 04:13:13;;;;;;;6.40;2.77;;;;;;;;;;4966363;28;20489;-79
2022/09/22 04:15:44;;;;;;;6.10;2.30;;;;;;;;;;4970200;28;20733;-79
2022/09/22 04:18:13;;;;;;;4.20;2.70;;;;;;;;;;4964738;28;20205;-79
2022/09/22 04:20:42;;;;;;;6.73;2.57;;;;;;;;;;4968913;28;20202;-79
2022/09/22 04:23:10;;;;;;;6.00;2.70;;;;;;;;;;4967858;28;20224;-79
2022/09/22 04:25:37;;;;;;;4.97;2.60;;;;;;;;;;4965543;28;20288;-79
2022/09/22 04:28:04;;;;;;;8.83;3.23;;;;;;;;;;4970234;28;20217;-79
2022/09/22 04:30:32;;;;;;;7.90;2.50;;;;;;;;;;4970699;28;20730;-79
2022/09/22 04:33:01;;;;;;;7.20;2.60;;;;;;;;;;4966103;28;20245;-79
2022/09/22 04:35:29;;;;;;;4.53;2.30;;;;;;;;;;4962902;28;20667;-79
2022/09/22 04:37:56;;;;;;;5.67;2.20;;;;;;;;;;4968832;28;21774;-79
2022/09/22 04:40:24;;;;;;;5.57;2.50;;;;;;;;;;4968016;28;20262;-79
2022/09/22 04:42:52;;;;;;;10.63;3.00;;;;;;;;;;4967908;28;21696;-79
2022/09/22 04:45:19;;;;;;;4.80;2.83;;;;;;;;;;4966057;28;20240;-79
2022/09/22 04:47:47;;;;;;;5.40;2.63;;;;;;;;;;4969976;28;20213;-79
2022/09/22 04:50:16;;;;;;;6.97;2.40;;;;;;;;;;4970974;28;20202;-79
2022/09/22 04:52:45;;;;;;;7.33;2.70;;;;;;;;;;4966572;28;20758;-80
2022/09/22 04:55:14;;;;;;;6.30;3.07;;;;;;;;;;4968088;28;20206;-80
2022/09/22 04:57:41;;;;;;;7.23;3.53;;;;;;;;;;4967636;28;20296;-80
2022/09/22 05:00:09;;;;;;;5.97;2.83;;;;;;;;;;4967102;28;20206;-80
2022/09/22 05:02:37;;;;;;;12.33;3.27;;;;;;;;;;4969701;28;20311;-81
2022/09/22 05:05:05;;;;;;;5.97;3.00;;;;;;;;;;4972504;28;20679;-80
2022/09/22 05:07:34;;;;;;;5.30;2.63;;;;;;;;;;4968547;28;20284;-80
2022/09/22 05:10:04;;;;;;;5.93;3.00;;;;;;;;;;4968605;28;20233;-80
2022/09/22 05:12:36;;;;;;;8.93;3.00;;;;;;;;;;4967490;28;20295;-80
2022/09/22 05:15:03;;;;;;;6.70;3.37;;;;;;;;;;4968404;28;20217;-81
2022/09/22 05:17:31;;;;;;;8.70;3.00;;;;;;;;;;4969521;28;20201;-80
2022/09/22 05:19:59;;;;;;;7.70;3.03;;;;;;;;;;4970796;28;20209;-80
2022/09/22 05:22:26;;;;;;;5.77;2.70;;;;;;;;;;4974455;28;20221;-80
2022/09/22 05:24:55;;;;;;;5.77;3.00;;;;;;;;;;4973683;28;20198;-81
2022/09/22 05:27:23;;;;;;;8.23;2.90;;;;;;;;;;4973899;28;20214;-81
2022/09/22 05:29:50;;;;;;;6.83;2.73;;;;;;;;;;4978539;28;20265;-81
2022/09/22 05:32:17;;;;;;;5.93;2.80;;;;;;;;;;4969739;28;20264;-81
2022/09/22 05:34:45;;;;;;;10.60;2.90;;;;;;;;;;4978011;28;20205;-80
2022/09/22 05:37:12;;;;;;;4.90;2.73;;;;;;;;;;4972372;28;20201;-81
2022/09/22 05:39:40;;;;;;;4.80;2.60;;;;;;;;;;4976776;28;20233;-80
2022/09/22 05:42:08;;;;;;;6.73;2.53;;;;;;;;;;4987001;28;20205;-80
2022/09/22 05:44:36;;;;;;;9.20;3.17;;;;;;;;;;4982688;28;20201;-79
2022/09/22 05:47:03;;;;;;;5.43;2.80;;;;;;;;;;4984767;28;20190;-80
2022/09/22 05:49:30;;;;;;;8.43;3.00;;;;;;;;;;4995368;28;20206;-80
2022/09/22 05:51:58;;;;;;;8.63;3.47;;;;;;;;;;4987878;28;20193;-80
2022/09/22 05:54:25;;;;;;;9.40;3.03;;;;;;;;;;4988264;28;20218;-80
2022/09/22 05:56:53;;;;;;;6.47;2.40;;;;;;;;;;4985277;28;21601;-81
2022/09/22 05:59:27;;;;;;;4.73;2.47;;;;;;;;;;4982705;28;20210;-80
2022/09/22 06:01:54;;;;;;;11.93;2.90;;;;;;;;;;4984748;28;20202;-79
2022/09/22 06:04:21;;;;;;;10.13;3.63;;;;;;;;;;4985016;28;20236;-80
2022/09/22 06:06:49;;;;;;;14.40;5.13;;;;;;;;;;4984982;28;20277;-80
2022/09/22 06:09:16;;;;;;;22.30;5.73;;;;;;;;;;4985515;28;20328;-80
2022/09/22 06:11:44;;;;;;;16.50;5.80;;;;;;;;;;4982448;28;21002;-79
2022/09/22 06:14:11;;;;;;;21.53;6.57;;;;;;;;;;4984588;28;20218;-81
2022/09/22 06:16:41;;;;;;;26.27;7.20;;;;;;;;;;4986975;28;20209;-80
2022/09/22 06:19:09;;;;;;;18.80;7.37;;;;;;;;;;4982554;28;20213;-79
2022/09/22 06:21:36;;;;;;;23.47;8.87;;;;;;;;;;4976663;28;20659;-80
2022/09/22 06:24:03;;;;;;;23.20;8.47;;;;;;;;;;4997094;23;20249;-77
2022/09/22 06:26:31;;;;;;;21.30;7.57;;;;;;;;;;4990261;28;20205;-76
2022/09/22 06:28:59;;;;;;;23.87;6.93;;;;;;;;;;4994560;28;20213;-77
2022/09/22 06:31:26;;;;;;;19.13;7.03;;;;;;;;;;4994032;28;20364;-77
2022/09/22 06:33:56;;;;;;;11.20;5.67;;;;;;;;;;4980628;28;20237;-77
2022/09/22 06:36:30;;;;;;;17.70;5.10;;;;;;;;;;4970702;28;20217;-76
2022/09/22 06:38:57;;;;;;;14.30;5.73;;;;;;;;;;4973076;28;20237;-77
2022/09/22 06:41:24;;;;;;;14.93;5.60;;;;;;;;;;4971246;28;20206;-76
2022/09/22 06:43:54;;;;;;;15.90;5.67;;;;;;;;;;4989496;23;20240;-81
2022/09/22 06:46:23;;;;;;;11.23;4.70;;;;;;;;;;4993996;28;20214;-82
2022/09/22 06:48:50;;;;;;;26.63;5.40;;;;;;;;;;4980899;28;20308;-82
2022/09/22 06:51:19;;;;;;;13.43;5.03;;;;;;;;;;4989613;28;20206;-82
2022/09/22 06:53:46;;;;;;;13.20;6.40;;;;;;;;;;4987720;28;20256;-82
2022/09/22 06:56:14;;;;;;;11.80;5.30;;;;;;;;;;4983550;28;20209;-82
2022/09/22 06:58:43;;;;;;;8.87;4.80;;;;;;;;;;4982343;23;20260;-79
2022/09/22 07:01:12;;;;;;;8.90;4.23;;;;;;;;;;4961802;28;20206;-79
2022/09/22 07:03:42;;;;;;;9.50;4.57;;;;;;;;;;4958526;28;20241;-80
2022/09/22 07:06:12;;;;;;;6.20;3.10;;;;;;;;;;4957369;28;20727;-79
2022/09/22 07:08:42;;;;;;;11.03;3.17;;;;;;;;;;4933797;29;20209;-79
2022/09/22 07:11:10;;;;;;;7.20;3.87;;;;;;;;;;4938155;28;20206;-79
2022/09/22 07:13:39;;;;;;;6.63;4.53;;;;;;;;;;4938529;28;20226;-80
2022/09/22 07:16:20;;;;;;;6.13;3.20;;;;;;;;;;4940405;28;20233;-79
2022/09/22 07:18:49;;;;;;;6.57;2.47;;;;;;;;;;4936349;29;20217;-80
2022/09/22 07:24:01;;;;;;;14.00;3.60;;;;;;;;;;4936499;28;20210;-79
2022/09/22 07:26:31;;;;;;;5.97;2.83;;;;;;;;;;4934465;28;20301;-79
2022/09/22 07:28:59;;;;;;;5.20;2.30;;;;;;;;;;4937059;29;20210;-80
2022/09/22 07:31:28;;;;;;;5.43;2.23;;;;;;;;;;4933246;28;20206;-79
2022/09/22 07:33:58;;;;;;;5.10;2.83;;;;;;;;;;4940875;28;20229;-79
2022/09/22 07:36:27;;;;;;;9.13;3.10;;;;;;;;;;4939395;28;20662;-79
2022/09/22 07:38:56;;;;;;;12.87;3.20;;;;;;;;;;4934421;28;20873;-79
2022/09/22 07:41:28;;;;;;;13.20;3.73;;;;;;;;;;4931827;28;20207;-80
2022/09/22 07:45:11;;;;;;;11.97;3.30;;;;;;;;;;4930697;28;20203;-79
2022/09/22 07:46:47;;;;;;;11.80;3.07;;;;;;;;;;4927539;28;20305;-80
2022/09/22 07:49:16;;;;;;;7.53;3.10;;;;;;;;;;4928845;28;20621;-80
2022/09/22 07:51:44;;;;;;;8.43;2.90;;;;;;;;;;4937011;28;20206;-79
2022/09/22 07:54:12;;;;;;;6.40;2.50;;;;;;;;;;4935148;28;20254;-79
2022/09/22 07:56:42;;;;;;;9.83;2.80;;;;;;;;;;4930471;28;20251;-79
2022/09/22 07:59:10;;;;;;;8.83;3.30;;;;;;;;;;4942293;28;20573;-80
2022/09/22 08:01:42;;;;;;;10.90;3.27;;;;;;;;;;4942341;28;20282;-79
2022/09/22 08:07:01;;;;;;;7.13;2.77;;;;;;;;;;4891694;28;20426;-79
2022/09/22 08:09:33;;;;;;;14.73;3.40;;;;;;;;;;4947526;29;20218;-79
2022/09/22 08:12:08;;;;;;;7.10;2.40;;;;;;;;;;4946507;28;20238;-79
2022/09/22 08:14:37;;;;;;;8.97;2.87;;;;;;;;;;4936502;28;20229;-80
2022/09/22 08:17:11;;;;;;;6.97;2.50;;;;;;;;;;4925744;28;20242;-80
2022/09/22 08:23:05;;;;;;;7.03;2.53;;;;;;;;;;4927857;28;20498;-79
2022/09/22 08:31:45;;;;;;;4.13;1.97;;;;;;;;;;4945766;28;20202;-79
2022/09/22 08:37:08;;;;;;;9.70;2.40;;;;;;;;;;4943025;28;20896;-78
2022/09/22 08:39:36;;;;;;;9.17;2.47;;;;;;;;;;4938457;29;20226;-79
2022/09/22 08:42:10;;;;;;;6.03;2.10;;;;;;;;;;4938574;29;20206;-80
2022/09/22 08:44:45;;;;;;;7.87;2.50;;;;;;;;;;4941684;29;20270;-79
2022/09/22 08:51:50;;;;;;;6.10;2.60;;;;;;;;;;4938315;29;20284;-79
2022/09/22 08:53:00;;;;;;;3.80;2.23;;;;;;;;;;4944273;28;21885;-79
2022/09/22 08:55:31;;;;;;;5.23;2.20;;;;;;;;;;4942744;29;20234;-79
2022/09/22 08:58:01;;;;;;;7.17;2.33;;;;;;;;;;4941759;28;20277;-78
2022/09/22 09:00:32;;;;;;;6.07;2.07;;;;;;;;;;4940760;29;20297;-79
2022/09/22 09:03:09;;;;;;;3.80;1.90;;;;;;;;;;4949138;29;20243;-78
2022/09/22 09:05:54;;;;;;;5.93;2.00;;;;;;;;;;4947056;29;20214;-79
2022/09/22 09:08:55;;;;;;;4.77;1.90;;;;;;;;;;4950151;28;20703;-79
2022/09/22 09:11:30;;;;;;;5.13;1.90;;;;;;;;;;4909196;28;20216;-78
2022/09/22 09:14:13;;;;;;;6.77;2.07;;;;;;;;;;4955575;28;20289;-78
2022/09/22 09:16:45;;;;;;;6.40;1.60;;;;;;;;;;4957231;28;20309;-79
2022/09/22 09:19:17;;;;;;;4.03;1.70;;;;;;;;;;4945063;28;20206;-78
2022/09/22 09:21:55;;;;;;;5.30;1.70;;;;;;;;;;4938079;29;20297;-79
2022/09/22 09:24:28;;;;;;;8.50;2.00;;;;;;;;;;4938311;28;20597;-79
2022/09/22 09:26:58;;;;;;;6.40;2.23;;;;;;;;;;4940128;28;20234;-78
2022/09/22 09:29:28;;;;;;;5.37;1.93;;;;;;;;;;4937822;28;20210;-78
2022/09/22 09:31:58;;;;;;;5.03;1.63;;;;;;;;;;4934665;28;20288;-78
2022/09/22 09:34:29;;;;;;;7.40;1.80;;;;;;;;;;4936419;29;20289;-78
2022/09/22 09:37:06;;;;;;;8.13;1.83;;;;;;;;;;4935422;28;20509;-78
2022/09/22 09:39:35;;;;;;;6.90;1.67;;;;;;;;;;4934279;28;20791;-78
2022/09/22 09:42:07;;;;;;;3.80;1.73;;;;;;;;;;4936345;28;20204;-79
2022/09/22 09:44:37;;;;;;;6.70;1.70;;;;;;;;;;4937735;29;20595;-79
2022/09/22 09:47:11;;;;;;;3.87;1.40;;;;;;;;;;4938501;28;20595;-79
2022/09/22 09:49:41;;;;;;;7.83;1.90;;;;;;;;;;4939021;29;20198;-77
2022/09/22 09:52:13;;;;;;;2.97;1.40;;;;;;;;;;4939974;28;20225;-79
2022/09/22 09:54:42;;;;;;;1.63;0.90;;;;;;;;;;4939390;28;20198;-79
2022/09/22 09:57:12;;;;;;;3.43;1.10;;;;;;;;;;4944474;28;20300;-78
2022/09/22 10:02:28;;;;;;;6.63;1.23;;;;;;;;;;4943371;28;20189;-79
2022/09/22 10:04:59;;;;;;;2.50;0.83;;;;;;;;;;4938893;28;20226;-78
2022/09/22 10:07:29;;;;;;;4.43;1.17;;;;;;;;;;4940657;28;20222;-79
2022/09/22 10:10:17;;;;;;;5.03;1.00;;;;;;;;;;4939200;28;20207;-79
2022/09/22 10:12:45;;;;;;;2.17;1.07;;;;;;;;;;4939760;28;20206;-78
2022/09/22 10:15:45;;;;;;;4.13;1.20;;;;;;;;;;4938383;28;20396;-79
2022/09/22 10:18:34;;;;;;;2.37;1.30;;;;;;;;;;4937597;28;20202;-79
2022/09/22 10:21:08;;;;;;;2.27;1.00;;;;;;;;;;4955937;28;20221;-78
2022/09/22 10:23:41;;;;;;;2.30;1.17;;;;;;;;;;4936981;28;20226;-79
2022/09/22 10:26:20;;;;;;;5.10;1.17;;;;;;;;;;4941803;28;20226;-78
2022/09/22 10:29:07;;;;;;;2.20;1.00;;;;;;;;;;4944046;28;20376;-77
2022/09/22 10:31:40;;;;;;;3.07;0.90;;;;;;;;;;4942763;28;20217;-78
2022/09/22 10:34:30;;;;;;;3.50;1.07;;;;;;;;;;4944700;29;20223;-79
2022/09/22 10:37:01;;;;;;;3.17;0.70;;;;;;;;;;4944785;28;20318;-78
2022/09/22 10:39:38;;;;;;;5.90;1.13;;;;;;;;;;4940512;28;20704;-81
2022/09/22 10:42:08;;;;;;;1.93;0.80;;;;;;;;;;4937047;28;20206;-81
2022/09/22 10:52:28;;;;;;;3.43;0.90;;;;;;;;;;5005542;23;20259;-81
2022/09/22 10:55:10;;;;;;;2.33;0.73;;;;;;;;;;4983970;28;20296;-80
2022/09/22 10:57:53;;;;;;;2.50;0.70;;;;;;;;;;4987214;28;20217;-82
2022/09/22 11:00:23;;;;;;;2.37;1.00;;;;;;;;;;4977461;28;20282;-82
2022/09/22 11:02:58;;;;;;;3.23;1.20;;;;;;;;;;4979727;28;20211;-81
2022/09/22 11:14:03;;;;;;;2.13;0.77;;;;;;;;;;4955554;28;20265;-78
2022/09/22 11:16:51;;;;;;;2.73;0.97;;;;;;;;;;4943353;28;20248;-77
2022/09/22 11:25:57;;;;;;;;;;;;;;;;;;;;;
2022/09/22 11:28:46;;;;;;;1.83;0.63;;;;;;;;;;4967615;28;20289;-80
2022/09/22 11:31:36;;;;;;;2.40;1.03;;;;;;;;;;4967874;28;20201;-80
2022/09/22 11:34:34;;;;;;;2.17;0.40;;;;;;;;;;4964467;28;20205;-79
2022/09/22 11:37:33;;;;;;;2.50;0.73;;;;;;;;;;4969342;28;20267;-79
2022/09/22 11:40:26;;;;;;;2.00;0.80;;;;;;;;;;4966320;28;20221;-80
2022/09/22 11:43:02;;;;;;;1.97;0.70;;;;;;;;;;4969550;28;20213;-79
2022/09/22 11:45:47;;;;;;;2.00;1.00;;;;;;;;;;4969393;28;20225;-79
2022/09/22 11:48:33;;;;;;;2.70;0.90;;;;;;;;;;4966698;28;20234;-79
2022/09/22 11:51:20;;;;;;;6.10;0.70;;;;;;;;;;4970217;28;20215;-80
2022/09/22 11:53:59;;;;;;;2.67;0.80;;;;;;;;;;4966388;28;20198;-81
2022/09/22 11:59:44;;;;;;;2.23;0.70;;;;;;;;;;4963139;28;20220;-81
2022/09/22 12:02:29;;;;;;;1.50;0.60;;;;;;;;;;4965507;28;20210;-81
2022/09/22 12:05:09;;;;;;;4.37;1.00;;;;;;;;;;4968729;28;20708;-81
2022/09/22 12:08:07;;;;;;;2.67;0.70;;;;;;;;;;4966084;28;20234;-82
2022/09/22 12:14:00;;;;;;;3.23;0.70;;;;;;;;;;4960537;28;20432;-81
2022/09/22 12:16:57;;;;;;;1.90;0.60;;;;;;;;;;4971978;28;20225;-81
2022/09/22 12:25:39;;;;;;;2.20;0.70;;;;;;;;;;4971839;28;20236;-81
2022/09/22 12:28:27;;;;;;;3.63;0.80;;;;;;;;;;4968808;28;20344;-81
2022/09/22 12:31:09;;;;;;;2.07;0.80;;;;;;;;;;4971729;28;20223;-81
2022/09/22 12:33:54;;;;;;;2.13;0.60;;;;;;;;;;4959031;28;20203;-80
2022/09/22 12:36:37;;;;;;;1.10;0.60;;;;;;;;;;4968440;28;20218;-80
2022/09/22 12:39:23;;;;;;;2.50;0.80;;;;;;;;;;4968586;28;20791;-81
2022/09/22 12:44:50;;;;;;;1.50;0.70;;;;;;;;;;4964425;28;20304;-80
2022/09/22 12:47:26;;;;;;;2.67;1.00;;;;;;;;;;4958134;28;20225;-80
2022/09/22 12:53:01;;;;;;;1.90;0.60;;;;;;;;;;4957483;28;20717;-80
2022/09/22 12:55:45;;;;;;;2.07;0.60;;;;;;;;;;4954391;28;20236;-80
2022/09/22 12:58:36;;;;;;;0.63;0.50;;;;;;;;;;4954118;28;20613;-79
2022/09/22 13:01:21;;;;;;;2.37;0.60;;;;;;;;;;4949982;28;20207;-81
2022/09/22 13:04:06;;;;;;;1.40;0.60;;;;;;;;;;4954716;28;20453;-80
2022/09/22 13:06:57;;;;;;;2.10;0.60;;;;;;;;;;4954694;28;20758;-80
2022/09/22 13:09:30;;;;;;;4.30;0.67;;;;;;;;;;4956770;28;20225;-81
2022/09/22 13:12:18;;;;;;;2.80;0.70;;;;;;;;;;4954446;28;20665;-81
2022/09/22 13:17:53;;;;;;;2.57;0.70;;;;;;;;;;4899555;29;20227;-81
2022/09/22 13:20:37;;;;;;;1.40;0.70;;;;;;;;;;4905998;29;20204;-80
2022/09/22 13:26:19;;;;;;;3.27;0.83;;;;;;;;;;4963979;28;20357;-82
2022/09/22 13:29:09;;;;;;;4.03;0.90;;;;;;;;;;4970045;28;20212;-80
2022/09/22 13:50:48;;;;;;;4.87;0.80;;;;;;;;;;4853611;29;20197;-78
2022/09/22 13:59:43;;;;;;;2.40;1.03;;;;;;;;;;5093768;28;20513;-84
2022/09/22 14:02:13;;;;;;;3.17;0.83;;;;;;;;;;5078682;28;20308;-82
2022/09/22 14:05:10;;;;;;;2.60;0.80;;;;;;;;;;5081567;28;20197;-82
2022/09/22 14:10:34;;;;;;;5.43;0.93;;;;;;;;;;5072177;28;20209;-82
2022/09/22 14:13:20;;;;;;;2.93;0.90;;;;;;;;;;5075024;28;20214;-81
2022/09/22 14:36:41;;;;;;;2.60;0.63;;;;;;;;;;4974078;28;20293;-82
2022/09/22 15:03:34;;;;;;;;;;;;;;;;;;;;;
2022/09/22 15:09:26;;;;;;;1.83;0.70;;;;;;;;;;5086195;28;20240;-83
2022/09/22 15:12:14;;;;;;;3.20;0.70;;;;;;;;;;5063741;28;20214;-82
2022/09/22 15:14:49;;;;;;;1.00;0.50;;;;;;;;;;5074078;28;20207;-81
2022/09/22 15:20:31;;;;;;;2.27;0.73;;;;;;;;;;5079855;28;20213;-82
2022/09/22 15:23:02;;;;;;;2.57;0.80;;;;;;;;;;5074957;28;20193;-81
2022/09/22 15:25:51;;;;;;;4.13;0.87;;;;;;;;;;5081412;28;20267;-81
2022/09/22 15:28:46;;;;;;;;;;;;;;;;;;;;;
2022/09/22 16:38:00;;;;;;;2.87;0.70;;;;;;;;;;5285100;22;20576;-77
2022/09/22 16:43:42;;;;;;;2.03;1.00;;;;;;;;;;4998606;28;20219;-78
2022/09/22 16:46:28;;;;;;;4.93;1.17;;;;;;;;;;5006485;28;20228;-77
2022/09/22 16:49:03;;;;;;;2.47;1.03;;;;;;;;;;5003305;28;20248;-77
2022/09/22 16:51:35;;;;;;;6.30;1.60;;;;;;;;;;5005608;28;20290;-76
2022/09/22 16:54:14;;;;;;;6.97;1.37;;;;;;;;;;5006827;28;20299;-77
2022/09/22 17:05:25;;;;;;;2.50;1.30;;;;;;;;;;5003828;28;20240;-78
2022/09/22 17:08:10;;;;;;;3.23;1.10;;;;;;;;;;5003255;28;21468;-77
2022/09/22 17:22:35;;;;;;;3.60;1.70;;;;;;;;;;4968015;28;20220;-79
2022/09/22 17:34:40;;;;;;;2.30;1.00;;;;;;;;;;4928258;29;20238;-78
2022/09/22 17:43:42;;;;;;;3.33;1.70;;;;;;;;;;5006264;28;20216;-78
2022/09/22 17:46:17;;;;;;;3.37;1.10;;;;;;;;;;5004122;28;20711;-78
2022/09/22 17:55:11;;;;;;;3.60;1.40;;;;;;;;;;5003993;28;20270;-77
2022/09/22 18:09:45;;;;;;;7.40;2.17;;;;;;;;;;4975970;28;20287;-78
2022/09/22 18:24:22;;;;;;;6.23;2.70;;;;;;;;;;4966784;28;20273;-78
2022/09/22 18:42:16;;;;;;;4.87;2.43;;;;;;;;;;4831444;29;20258;-77
2022/09/22 18:53:53;;;;;;;3.40;2.50;;;;;;;;;;4784172;29;20252;-77
2022/09/22 19:02:31;;;;;;;4.97;2.83;;;;;;;;;;4823497;29;20264;-78
2022/09/22 19:26:24;;;;;;;6.27;2.33;;;;;;;;;;4864534;29;20230;-77
2022/09/22 20:04:54;;;;;;;9.40;4.83;;;;;;;;;;4946147;28;20210;-80
2022/09/22 20:07:55;;;;;;;15.63;4.40;;;;;;;;;;4941484;28;20568;-77
2022/09/22 20:23:32;;;;;;;7.97;3.70;;;;;;;;;;4848077;29;20225;-77
2022/09/22 20:26:35;;;;;;;;;;;;;;;;;;;;;
2022/09/22 20:35:46;;;;;;;6.13;3.87;;;;;;;;;;4980678;28;20212;-79
2022/09/22 20:41:50;;;;;;;11.93;4.80;;;;;;;;;;4963907;28;20260;-78
2022/09/22 20:44:47;;;;;;;8.27;4.70;;;;;;;;;;4967730;28;20210;-78
2022/09/22 20:47:48;;;;;;;7.53;4.13;;;;;;;;;;4965276;28;20225;-78
2022/09/22 20:50:54;;;;;;;8.30;4.70;;;;;;;;;;4965669;28;20207;-79
2022/09/22 20:59:44;;;;;;;11.80;4.67;;;;;;;;;;4957519;28;20744;-78
2022/09/22 21:31:37;;;;;;;8.60;4.60;;;;;;;;;;4987018;28;20205;-79
2022/09/22 21:34:48;;;;;;;;;;;;;;;;;;;;;
2022/09/22 21:46:58;;;;;;;;;;;;;;;;;;;;;
2022/09/22 22:05:20;;;;;;;7.80;4.67;;;;;;;;;;4873894;29;20686;-79
2022/09/22 22:08:18;;;;;;;9.97;5.00;;;;;;;;;;4889212;29;20260;-79
2022/09/22 22:11:44;;;;;;;;;;;;;;;;;;;;;
2022/09/22 22:17:46;;;;;;;11.83;4.77;;;;;;;;;;4904205;29;20228;-79
2022/09/22 22:23:11;;;;;;;9.50;4.50;;;;;;;;;;4858963;29;20206;-79
2022/09/22 22:26:00;;;;;;;10.57;4.67;;;;;;;;;;4877234;29;20275;-80
2022/09/22 22:35:02;;;;;;;8.57;4.30;;;;;;;;;;4908065;29;20258;-81
2022/09/22 23:02:24;;;;;;;12.93;4.27;;;;;;;;;;4903170;29;20233;-79
2022/09/22 23:14:27;;;;;;;8.87;4.67;;;;;;;;;;4929674;29;20206;-79
2022/09/22 23:17:28;;;;;;;9.40;4.67;;;;;;;;;;4985884;28;20550;-78
2022/09/22 23:42:20;;;;;;;7.50;4.30;;;;;;;;;;4928121;29;20211;-78
